Time;durP1;ratioP1;P1;durP2;ratioP2;P2;SDS_P1;SDS_P2;PMS_P1;PMS_P2;Temp;Humidity;BMP_temperature;BMP_pressure;BME280_temperature;BME280_humidity;BME280_pressure;Samples;Min_cycle;Max_cycle;Signal;HPM_P1;HPM_P2
2023/01/28 00:01:20;;;;;;;6.20;4.30;;;4.30;72.50;;;;;;4953917;29;20204;-78
2023/01/28 00:03:51;;;;;;;7.30;5.20;;;4.30;72.50;;;;;;4953599;29;20218;-78
2023/01/28 00:06:20;;;;;;;5.43;4.17;;;4.30;72.50;;;;;;4953867;29;20203;-78
2023/01/28 00:08:49;;;;;;;7.03;3.93;;;4.30;72.40;;;;;;4954026;29;20249;-78
2023/01/28 00:11:21;;;;;;;4.13;3.77;;;4.30;72.40;;;;;;4953932;29;20626;-79
2023/01/28 00:13:52;;;;;;;3.20;2.87;;;4.30;72.50;;;;;;4953723;29;20195;-80
2023/01/28 00:16:22;;;;;;;3.97;2.97;;;4.30;72.50;;;;;;4958216;28;20297;-80
2023/01/28 00:18:51;;;;;;;3.30;2.87;;;4.30;72.50;;;;;;4962972;28;20554;-79
2023/01/28 00:21:20;;;;;;;4.63;2.97;;;4.30;72.00;;;;;;4953637;29;20686;-80
2023/01/28 00:23:53;;;;;;;11.90;7.53;;;4.30;72.00;;;;;;4953356;29;20698;-79
2023/01/28 00:26:24;;;;;;;8.83;4.50;;;4.30;72.10;;;;;;4958991;28;20197;-79
2023/01/28 00:28:52;;;;;;;3.80;2.93;;;4.30;72.00;;;;;;4972752;28;20233;-79
2023/01/28 00:31:24;;;;;;;3.10;2.90;;;4.30;72.00;;;;;;4972665;28;20282;-79
2023/01/28 00:33:55;;;;;;;3.17;2.87;;;4.30;72.10;;;;;;4972579;28;20256;-80
2023/01/28 00:36:26;;;;;;;3.67;3.37;;;4.30;71.90;;;;;;4972668;28;20206;-80
2023/01/28 00:38:56;;;;;;;2.70;2.50;;;4.30;71.70;;;;;;4972756;28;20614;-79
2023/01/28 00:41:30;;;;;;;3.70;2.67;;;4.30;71.50;;;;;;4939218;28;20215;-79
2023/01/28 00:43:59;;;;;;;3.27;2.97;;;4.30;71.60;;;;;;4972719;28;20209;-78
2023/01/28 00:46:31;;;;;;;4.53;3.03;;;4.30;71.50;;;;;;4954352;28;20201;-78
2023/01/28 00:49:02;;;;;;;3.97;3.53;;;4.30;71.30;;;;;;4973319;28;20213;-78
2023/01/28 00:51:31;;;;;;;4.97;3.87;;;4.30;71.40;;;;;;4936406;29;20263;-78
2023/01/28 00:54:00;;;;;;;4.73;3.73;;;4.30;71.80;;;;;;4952824;29;20211;-79
2023/01/28 00:56:29;;;;;;;4.47;3.70;;;4.30;71.70;;;;;;4954009;29;20200;-79
2023/01/28 00:58:58;;;;;;;6.53;4.00;;;4.30;71.40;;;;;;4953943;29;20645;-80
2023/01/28 01:01:28;;;;;;;5.27;3.13;;;4.30;71.40;;;;;;4953898;29;20201;-79
2023/01/28 01:04:09;;;;;;;4.80;3.03;;;4.20;71.10;;;;;;4953633;29;20213;-79
2023/01/28 01:06:39;;;;;;;3.87;3.13;;;4.20;70.20;;;;;;4954201;29;20218;-79
2023/01/28 01:09:11;;;;;;;6.27;3.90;;;4.20;70.90;;;;;;4954040;29;20202;-78
2023/01/28 01:11:41;;;;;;;3.30;3.00;;;4.20;71.40;;;;;;4953715;29;20674;-78
2023/01/28 01:14:11;;;;;;;4.00;3.67;;;4.20;71.10;;;;;;4952629;29;20666;-78
2023/01/28 01:16:41;;;;;;;5.50;3.37;;;4.20;71.10;;;;;;4953859;29;20258;-79
2023/01/28 01:19:13;;;;;;;3.17;2.87;;;4.20;71.20;;;;;;4953995;29;20595;-80
2023/01/28 01:21:49;;;;;;;3.07;2.73;;;4.20;71.00;;;;;;4936552;29;20211;-79
2023/01/28 01:24:18;;;;;;;3.70;3.27;;;4.20;71.00;;;;;;4952428;29;20292;-79
2023/01/28 01:26:52;;;;;;;3.17;2.87;;;4.20;71.00;;;;;;4957493;28;20196;-79
2023/01/28 01:29:22;;;;;;;7.03;3.40;;;4.20;71.10;;;;;;4954050;28;20673;-79
2023/01/28 01:31:51;;;;;;;4.07;2.90;;;4.30;71.00;;;;;;4960630;28;20227;-78
2023/01/28 01:34:22;;;;;;;5.53;3.40;;;4.20;70.60;;;;;;4973223;28;20197;-78
2023/01/28 01:36:51;;;;;;;2.83;2.63;;;4.30;70.80;;;;;;4973085;28;20234;-79
2023/01/28 01:39:20;;;;;;;4.10;2.83;;;4.20;70.40;;;;;;4955551;28;20610;-80
2023/01/28 01:41:50;;;;;;;4.30;2.80;;;4.20;70.70;;;;;;4971499;28;20251;-81
2023/01/28 01:44:57;;;;;;;2.97;2.77;;;4.20;70.60;;;;;;4971597;28;20205;-81
2023/01/28 01:47:31;;;;;;;2.83;2.63;;;4.20;70.50;;;;;;4972758;28;20583;-78
2023/01/28 01:50:13;;;;;;;2.87;2.53;;;4.30;70.60;;;;;;4971676;28;20212;-80
2023/01/28 01:52:43;;;;;;;3.90;2.80;;;4.30;70.60;;;;;;4955277;28;20695;-78
2023/01/28 01:55:16;;;;;;;3.23;2.70;;;4.20;70.40;;;;;;4972961;28;20197;-79
2023/01/28 01:57:47;;;;;;;3.37;2.83;;;4.30;70.50;;;;;;4971596;28;20672;-79
2023/01/28 02:00:17;;;;;;;3.57;3.17;;;4.30;70.30;;;;;;4955353;28;20254;-80
2023/01/28 02:02:49;;;;;;;3.27;2.73;;;4.30;70.10;;;;;;4955279;28;20211;-79
2023/01/28 02:05:22;;;;;;;5.50;3.23;;;4.20;70.10;;;;;;4971533;28;20205;-79
2023/01/28 02:08:19;;;;;;;4.20;3.10;;;4.20;70.10;;;;;;4972726;28;20213;-79
2023/01/28 02:10:46;;;;;;;3.23;2.93;;;4.20;70.00;;;;;;4972414;28;20220;-79
2023/01/28 02:13:19;;;;;;;4.83;3.30;;;4.20;69.80;;;;;;4972677;28;20219;-79
2023/01/28 02:15:49;;;;;;;2.73;2.33;;;4.20;69.80;;;;;;4973299;28;20565;-80
2023/01/28 02:18:18;;;;;;;2.87;2.53;;;4.20;68.60;;;;;;4976120;28;20281;-79
2023/01/28 02:21:12;;;;;;;3.83;2.50;;;4.10;69.00;;;;;;4974908;28;20201;-78
2023/01/28 02:24:00;;;;;;;2.37;2.27;;;4.20;69.60;;;;;;4974240;28;20853;-78
2023/01/28 02:27:03;;;;;;;3.67;3.03;;;4.20;69.60;;;;;;4974801;28;20264;-79
2023/01/28 02:29:40;;;;;;;4.40;3.27;;;4.10;69.00;;;;;;4974643;28;20843;-80
2023/01/28 02:32:15;;;;;;;4.43;2.97;;;4.10;69.00;;;;;;4974520;28;20221;-78
2023/01/28 02:34:48;;;;;;;4.80;3.73;;;4.10;69.30;;;;;;4974514;28;20207;-79
2023/01/28 02:37:22;;;;;;;3.77;3.00;;;4.10;69.30;;;;;;4970966;28;20659;-77
2023/01/28 02:39:56;;;;;;;3.73;3.43;;;4.20;69.30;;;;;;4961476;28;20259;-76
2023/01/28 02:42:29;;;;;;;3.73;3.20;;;4.20;69.40;;;;;;4939332;29;20217;-81
2023/01/28 02:45:00;;;;;;;3.77;3.13;;;4.20;69.00;;;;;;4955028;29;20225;-77
2023/01/28 02:50:19;;;;;;;3.33;3.00;;;4.20;68.60;;;;;;4939051;29;20277;-77
2023/01/28 02:55:56;;;;;;;6.07;3.10;;;4.10;68.10;;;;;;4954983;29;20206;-77
2023/01/28 02:58:35;;;;;;;2.67;2.47;;;4.00;67.80;;;;;;4956139;29;20540;-78
2023/01/28 03:01:15;;;;;;;3.37;2.57;;;3.90;67.80;;;;;;4956067;29;20597;-80
2023/01/28 03:03:54;;;;;;;4.10;3.33;;;3.90;68.60;;;;;;4955897;29;20201;-78
2023/01/28 03:06:29;;;;;;;3.13;2.83;;;3.90;68.60;;;;;;4955998;29;20561;-76
2023/01/28 03:37:28;;;;;;;10.67;6.60;;;4.00;68.70;;;;;;4954217;28;20300;-78
2023/01/28 03:40:17;;;;;;;11.90;5.90;;;4.00;68.90;;;;;;4937978;29;20216;-80
2023/01/28 03:42:47;;;;;;;7.87;5.40;;;4.00;68.90;;;;;;4938007;29;20263;-80
2023/01/28 03:45:41;;;;;;;7.93;5.33;;;4.00;69.10;;;;;;4953216;29;20273;-80
2023/01/28 03:48:10;;;;;;;4.47;3.13;;;4.00;69.60;;;;;;4955079;29;20265;-80
2023/01/28 03:50:41;;;;;;;4.07;3.77;;;4.00;69.50;;;;;;4955196;29;20229;-77
2023/01/28 03:53:13;;;;;;;5.23;3.80;;;4.00;69.70;;;;;;4956664;28;20329;-78
2023/01/28 03:55:53;;;;;;;3.97;3.67;;;4.00;69.90;;;;;;4957024;28;20219;-78
2023/01/28 03:58:25;;;;;;;4.07;3.27;;;4.00;69.90;;;;;;4956995;28;20671;-78
2023/01/28 04:00:55;;;;;;;5.13;3.70;;;4.00;69.80;;;;;;4950590;29;20264;-79
2023/01/28 04:03:24;;;;;;;5.60;3.60;;;4.00;69.90;;;;;;4935832;29;20194;-82
2023/01/28 04:06:06;;;;;;;4.33;3.33;;;4.00;70.00;;;;;;4934595;29;20203;-80
2023/01/28 04:08:59;;;;;;;8.50;4.50;;;4.00;70.10;;;;;;4895659;29;20211;-81
2023/01/28 04:11:33;;;;;;;10.70;6.80;;;4.00;70.10;;;;;;4890022;29;20569;-82
2023/01/28 04:14:04;;;;;;;13.07;6.57;;;4.00;70.10;;;;;;4898692;29;20236;-81
2023/01/28 04:16:53;;;;;;;9.60;6.40;;;4.00;70.90;;;;;;4914484;29;20720;-81
2023/01/28 04:19:25;;;;;;;10.17;6.83;;;4.00;70.40;;;;;;4898684;29;20213;-79
2023/01/28 04:21:56;;;;;;;9.77;6.60;;;4.00;70.50;;;;;;4898629;29;20226;-81
2023/01/28 04:24:26;;;;;;;9.93;6.40;;;3.90;70.50;;;;;;4898614;29;20631;-80
2023/01/28 04:26:55;;;;;;;126.70;52.20;;;4.00;70.80;;;;;;4914476;29;20219;-81
2023/01/28 04:29:25;;;;;;;83.40;34.83;;;3.90;70.60;;;;;;4898400;29;20249;-80
2023/01/28 04:31:59;;;;;;;57.23;27.20;;;3.90;70.70;;;;;;4898534;29;20238;-81
2023/01/28 04:34:42;;;;;;;32.80;18.07;;;3.90;71.10;;;;;;4909657;29;21381;-79
2023/01/28 04:37:20;;;;;;;17.40;11.33;;;3.90;71.10;;;;;;4879627;29;20243;-80
2023/01/28 04:40:11;;;;;;;6.93;6.20;;;3.90;71.50;;;;;;4875836;29;20211;-81
2023/01/28 04:42:54;;;;;;;7.67;6.10;;;3.90;71.80;;;;;;4876927;29;20229;-79
2023/01/28 04:45:43;;;;;;;8.03;5.70;;;3.90;72.00;;;;;;4888694;29;20298;-82
2023/01/28 04:48:33;;;;;;;6.33;5.33;;;3.90;71.60;;;;;;4916058;29;20242;-79
2023/01/28 04:51:20;;;;;;;7.00;5.00;;;3.90;71.70;;;;;;4915001;29;20203;-79
2023/01/28 04:54:00;;;;;;;6.07;5.20;;;3.90;72.20;;;;;;4916325;29;20238;-79
2023/01/28 04:56:32;;;;;;;4.93;4.27;;;3.90;72.00;;;;;;4914922;29;20579;-79
2023/01/28 04:59:02;;;;;;;5.37;4.30;;;3.90;71.80;;;;;;4919145;29;20241;-82
2023/01/28 05:01:32;;;;;;;7.10;4.27;;;3.90;72.10;;;;;;4933856;29;20261;-81
2023/01/28 05:04:04;;;;;;;5.80;4.50;;;3.90;72.00;;;;;;4933589;29;20209;-80
2023/01/28 05:06:36;;;;;;;4.33;3.30;;;3.90;72.60;;;;;;4933770;29;20670;-80
2023/01/28 05:09:19;;;;;;;4.17;3.37;;;3.90;72.70;;;;;;4933725;29;20260;-79
2023/01/28 05:11:49;;;;;;;7.90;4.83;;;3.90;72.80;;;;;;4937897;28;20253;-80
2023/01/28 05:14:18;;;;;;;6.97;5.30;;;3.80;73.50;;;;;;4949391;28;20219;-78
2023/01/28 05:17:07;;;;;;;16.70;9.70;;;3.80;73.70;;;;;;4934585;29;20245;-79
2023/01/28 05:19:36;;;;;;;8.73;6.87;;;3.80;73.80;;;;;;4932701;29;20211;-78
2023/01/28 05:22:10;;;;;;;9.57;6.07;;;3.70;74.30;;;;;;4941692;28;20283;-79
2023/01/28 05:24:46;;;;;;;8.37;6.37;;;3.70;74.50;;;;;;4960169;28;20287;-78
2023/01/28 05:27:15;;;;;;;16.67;8.20;;;3.70;74.80;;;;;;4951871;29;20232;-79
2023/01/28 05:29:44;;;;;;;9.87;7.70;;;3.70;74.50;;;;;;4948056;28;20210;-81
2023/01/28 05:32:13;;;;;;;9.30;7.40;;;3.70;74.80;;;;;;4951841;28;20210;-79
2023/01/28 05:34:42;;;;;;;12.07;7.80;;;3.70;75.10;;;;;;4951844;29;20691;-78
2023/01/28 05:37:14;;;;;;;14.27;7.73;;;3.70;75.00;;;;;;4952556;29;20205;-78
2023/01/28 05:39:46;;;;;;;13.30;8.67;;;3.70;75.30;;;;;;4952656;28;21011;-80
2023/01/28 05:42:17;;;;;;;13.23;8.27;;;3.70;75.00;;;;;;4952622;29;20667;-79
2023/01/28 05:44:48;;;;;;;10.17;7.23;;;3.70;74.80;;;;;;4952472;29;20214;-79
2023/01/28 05:47:29;;;;;;;8.90;6.67;;;3.70;75.10;;;;;;4952617;29;20237;-80
2023/01/28 05:50:17;;;;;;;8.73;6.90;;;3.70;75.60;;;;;;4954224;28;20212;-79
2023/01/28 05:53:09;;;;;;;12.47;7.70;;;3.70;75.40;;;;;;4957548;29;20211;-81
2023/01/28 05:55:48;;;;;;;14.50;9.17;;;3.70;75.20;;;;;;4956126;29;20248;-79
2023/01/28 05:58:18;;;;;;;13.53;8.33;;;3.70;75.30;;;;;;4956023;29;20580;-79
2023/01/28 06:00:47;;;;;;;13.57;7.90;;;3.70;75.70;;;;;;4955861;29;20242;-81
2023/01/28 06:03:20;;;;;;;10.87;7.87;;;3.70;75.20;;;;;;4955857;29;20212;-78
2023/01/28 06:05:49;;;;;;;10.87;7.43;;;3.60;74.40;;;;;;4957138;28;20225;-80
2023/01/28 06:08:18;;;;;;;8.33;6.73;;;3.60;74.90;;;;;;4955765;29;20216;-80
2023/01/28 06:14:05;;;;;;;13.90;7.53;;;3.60;76.40;;;;;;4949987;23;20669;-79
2023/01/28 06:16:57;;;;;;;6.63;5.30;;;3.60;75.90;;;;;;4936075;29;20246;-80
2023/01/28 06:19:29;;;;;;;7.07;5.17;;;3.70;76.10;;;;;;4937524;29;20245;-79
2023/01/28 06:21:58;;;;;;;7.20;5.47;;;3.70;75.90;;;;;;4920630;29;20292;-80
2023/01/28 06:24:33;;;;;;;6.33;4.43;;;3.70;75.70;;;;;;4920673;29;20642;-79
2023/01/28 06:27:09;;;;;;;7.83;5.40;;;3.70;75.90;;;;;;4936146;29;20206;-80
2023/01/28 06:29:38;;;;;;;6.80;4.80;;;3.70;76.10;;;;;;4937581;29;20273;-80
2023/01/28 06:32:20;;;;;;;9.17;5.27;;;3.70;75.50;;;;;;4920306;29;20731;-81
2023/01/28 06:35:20;;;;;;;5.97;4.67;;;3.70;75.60;;;;;;4920106;29;20612;-80
2023/01/28 06:37:53;;;;;;;5.97;4.70;;;3.60;75.60;;;;;;4937439;29;20276;-80
2023/01/28 06:40:23;;;;;;;5.73;4.37;;;3.60;76.20;;;;;;4937246;29;20213;-79
2023/01/28 06:45:36;;;;;;;34.07;13.67;;;3.70;76.50;;;;;;4934743;29;20226;-81
2023/01/28 06:48:06;;;;;;;33.43;14.67;;;3.70;76.50;;;;;;4937273;29;20203;-79
2023/01/28 06:50:36;;;;;;;26.50;13.17;;;3.70;76.40;;;;;;4937193;29;20226;-80
2023/01/28 06:53:11;;;;;;;22.23;11.37;;;3.70;76.30;;;;;;4937215;29;20197;-80
2023/01/28 06:55:40;;;;;;;29.33;12.13;;;3.70;75.80;;;;;;4937259;29;20234;-79
2023/01/28 07:00:54;;;;;;;26.80;11.67;;;3.70;76.70;;;;;;4934113;29;20273;-81
2023/01/28 07:03:23;;;;;;;20.97;12.10;;;3.70;77.00;;;;;;4935177;29;20211;-79
2023/01/28 07:05:52;;;;;;;21.97;10.70;;;3.70;77.00;;;;;;4936857;29;20193;-83
2023/01/28 07:08:21;;;;;;;25.77;11.80;;;3.70;77.00;;;;;;4936873;29;20199;-80
2023/01/28 07:10:50;;;;;;;29.13;11.87;;;3.70;77.50;;;;;;4936783;29;20203;-83
2023/01/28 07:13:21;;;;;;;19.83;10.27;;;3.70;77.40;;;;;;4936506;29;20229;-81
2023/01/28 07:15:49;;;;;;;17.80;10.50;;;3.80;77.20;;;;;;4936581;29;20227;-80
2023/01/28 07:18:18;;;;;;;15.73;10.10;;;3.80;77.50;;;;;;4936556;29;20285;-81
2023/01/28 07:20:48;;;;;;;14.93;9.60;;;3.80;77.80;;;;;;4936377;29;20737;-78
2023/01/28 07:23:24;;;;;;;16.87;9.93;;;3.80;77.70;;;;;;4936605;29;20339;-79
2023/01/28 07:26:09;;;;;;;15.10;8.63;;;3.90;77.60;;;;;;4936446;29;20204;-80
2023/01/28 07:28:45;;;;;;;16.43;9.93;;;3.80;76.80;;;;;;4936386;29;20209;-85
2023/01/28 07:31:16;;;;;;;14.83;8.80;;;3.80;76.70;;;;;;4936397;29;20276;-77
2023/01/28 07:33:47;;;;;;;14.13;8.53;;;3.80;76.40;;;;;;4936295;29;20199;-76
2023/01/28 07:36:16;;;;;;;9.43;7.60;;;3.80;76.40;;;;;;4936230;29;20256;-76
2023/01/28 07:38:45;;;;;;;11.03;6.80;;;3.80;77.10;;;;;;4936219;29;20615;-80
2023/01/28 07:41:14;;;;;;;14.70;7.40;;;3.80;77.30;;;;;;4936375;29;20198;-77
2023/01/28 07:43:45;;;;;;;10.47;7.20;;;3.80;76.70;;;;;;4861684;29;20203;-82
2023/01/28 07:46:23;;;;;;;11.00;7.13;;;3.80;75.70;;;;;;4877454;29;20288;-78
2023/01/28 07:48:52;;;;;;;14.17;7.10;;;3.70;75.80;;;;;;4877224;29;20304;-78
2023/01/28 07:51:21;;;;;;;8.27;6.73;;;3.70;76.30;;;;;;4876755;29;20211;-79
2023/01/28 07:53:50;;;;;;;9.97;7.10;;;3.80;76.70;;;;;;4877192;29;20722;-78
2023/01/28 07:56:47;;;;;;;11.80;7.20;;;3.80;75.70;;;;;;4877221;29;20318;-79
2023/01/28 07:59:18;;;;;;;10.77;7.30;;;3.80;75.50;;;;;;4877236;29;20245;-78
2023/01/28 08:01:54;;;;;;;8.57;6.70;;;3.80;75.30;;;;;;4902190;28;20564;-78
2023/01/28 08:04:23;;;;;;;9.77;7.47;;;3.80;74.80;;;;;;4934564;29;20203;-79
2023/01/28 08:07:01;;;;;;;21.97;13.03;;;3.80;74.80;;;;;;4918370;29;20629;-79
2023/01/28 08:09:33;;;;;;;25.93;16.03;;;3.80;75.70;;;;;;4935613;29;20240;-79
2023/01/28 08:12:02;;;;;;;33.10;16.23;;;3.80;76.20;;;;;;4935595;29;20198;-81
2023/01/28 08:14:32;;;;;;;29.20;18.33;;;3.80;76.50;;;;;;4935280;29;20323;-80
2023/01/28 08:17:01;;;;;;;30.67;14.97;;;3.90;76.70;;;;;;4935524;29;20232;-79
2023/01/28 08:19:30;;;;;;;28.37;16.50;;;3.90;76.80;;;;;;4935341;29;20195;-78
2023/01/28 08:21:59;;;;;;;24.57;15.87;;;3.90;77.40;;;;;;4935182;29;20340;-79
2023/01/28 08:24:28;;;;;;;27.27;15.60;;;4.00;77.50;;;;;;4935547;29;20198;-80
2023/01/28 08:26:57;;;;;;;37.93;19.37;;;4.00;77.60;;;;;;4935422;29;20667;-82
2023/01/28 08:29:26;;;;;;;35.43;19.60;;;4.10;78.00;;;;;;4933987;29;20235;-82
2023/01/28 08:32:02;;;;;;;16.97;11.63;;;4.20;78.40;;;;;;4935301;29;20273;-79
2023/01/28 08:34:31;;;;;;;33.30;17.23;;;4.20;77.40;;;;;;4934995;29;20198;-81
2023/01/28 08:37:07;;;;;;;24.47;14.67;;;4.20;75.40;;;;;;4935174;29;20233;-80
2023/01/28 08:39:36;;;;;;;23.30;14.23;;;4.20;74.60;;;;;;4935127;29;20229;-82
2023/01/28 08:42:07;;;;;;;29.43;17.70;;;4.10;74.80;;;;;;4934821;29;20202;-80
2023/01/28 08:44:36;;;;;;;28.00;15.40;;;4.10;74.80;;;;;;4934918;29;20202;-79
2023/01/28 08:47:06;;;;;;;22.50;13.80;;;4.10;74.90;;;;;;4934973;29;20210;-82
2023/01/28 08:49:35;;;;;;;26.33;15.90;;;4.10;74.60;;;;;;4917884;29;20218;-82
2023/01/28 08:52:05;;;;;;;26.40;15.67;;;4.10;74.40;;;;;;4969012;23;20249;-81
2023/01/28 08:54:35;;;;;;;20.90;14.67;;;4.10;74.60;;;;;;4973509;28;20216;-79
2023/01/28 08:57:04;;;;;;;22.80;14.50;;;4.10;74.30;;;;;;4973360;28;20299;-80
2023/01/28 08:59:33;;;;;;;28.97;15.23;;;4.20;74.10;;;;;;4973409;28;20675;-81
2023/01/28 09:02:02;;;;;;;27.47;16.47;;;4.20;75.10;;;;;;4956067;28;20204;-81
2023/01/28 09:04:34;;;;;;;23.20;14.73;;;4.20;75.70;;;;;;4979907;23;20208;-82
2023/01/28 09:07:15;;;;;;;21.43;13.13;;;4.30;75.90;;;;;;4915365;29;20674;-78
2023/01/28 09:09:47;;;;;;;24.13;14.20;;;4.40;75.20;;;;;;4915947;29;20222;-79
2023/01/28 09:12:20;;;;;;;23.03;12.97;;;4.30;73.80;;;;;;4914210;29;20580;-81
2023/01/28 09:14:49;;;;;;;22.73;13.90;;;4.30;73.60;;;;;;4952218;29;20288;-80
2023/01/28 09:17:18;;;;;;;19.73;11.67;;;4.30;73.70;;;;;;4953843;29;20711;-79
2023/01/28 09:19:51;;;;;;;21.40;12.10;;;4.30;73.90;;;;;;4953725;29;20202;-80
2023/01/28 09:22:49;;;;;;;13.50;9.30;;;4.30;74.00;;;;;;4953999;29;20219;-78
2023/01/28 09:25:28;;;;;;;16.60;10.30;;;4.30;73.10;;;;;;4953776;28;20215;-78
2023/01/28 09:27:58;;;;;;;13.57;9.70;;;4.30;73.20;;;;;;4957777;29;20204;-77
2023/01/28 09:30:27;;;;;;;14.33;9.67;;;4.40;74.40;;;;;;4957676;29;20217;-82
2023/01/28 09:32:57;;;;;;;12.17;7.77;;;4.40;74.70;;;;;;4957989;29;20616;-80
2023/01/28 09:35:42;;;;;;;11.30;7.80;;;4.50;73.60;;;;;;4957390;29;20290;-78
2023/01/28 09:38:11;;;;;;;10.90;7.67;;;4.50;72.80;;;;;;4957698;29;20217;-80
2023/01/28 09:41:07;;;;;;;12.93;7.57;;;4.50;73.00;;;;;;4957555;29;20284;-80
2023/01/28 09:44:08;;;;;;;12.53;7.77;;;4.50;73.40;;;;;;4949769;29;20835;-80
2023/01/28 09:46:46;;;;;;;13.90;9.27;;;4.60;73.70;;;;;;4957411;29;20193;-78
2023/01/28 09:49:24;;;;;;;16.43;9.73;;;4.60;72.00;;;;;;4957050;29;20187;-77
2023/01/28 09:51:57;;;;;;;16.03;9.73;;;4.50;71.20;;;;;;4957538;29;20602;-78
2023/01/28 09:54:44;;;;;;;17.17;10.83;;;4.50;71.00;;;;;;4957263;29;20563;-80
2023/01/28 09:57:22;;;;;;;18.80;11.40;;;4.50;71.00;;;;;;4956929;29;20719;-80
2023/01/28 09:59:52;;;;;;;18.97;11.77;;;4.60;71.50;;;;;;4957029;29;20224;-80
2023/01/28 10:02:47;;;;;;;18.30;10.30;;;4.50;70.80;;;;;;4957233;29;20198;-79
2023/01/28 10:05:27;;;;;;;59.03;32.73;;;4.60;70.30;;;;;;4956885;29;20199;-81
2023/01/28 10:08:08;;;;;;;14.43;9.70;;;4.50;70.30;;;;;;4957120;29;20197;-79
2023/01/28 10:14:34;;;;;;;25.47;14.17;;;4.50;70.30;;;;;;4956542;29;20233;-80
2023/01/28 10:17:12;;;;;;;27.30;14.53;;;4.50;70.80;;;;;;4956700;29;20573;-79
2023/01/28 10:20:21;;;;;;;23.57;13.43;;;4.60;71.80;;;;;;4956596;29;20212;-79
2023/01/28 10:25:48;;;;;;;21.13;12.47;;;4.60;70.60;;;;;;4955428;29;20585;-79
2023/01/28 10:28:23;;;;;;;22.63;13.30;;;4.60;69.20;;;;;;4956514;29;20207;-79
2023/01/28 10:31:13;;;;;;;20.60;12.10;;;4.50;69.30;;;;;;4956281;29;20234;-79
2023/01/28 10:33:42;;;;;;;21.50;12.47;;;4.50;70.40;;;;;;4956509;29;20193;-78
2023/01/28 10:36:17;;;;;;;19.27;11.93;;;4.50;70.10;;;;;;4955303;28;20305;-76
2023/01/28 10:38:46;;;;;;;26.63;13.67;;;4.60;71.30;;;;;;4956825;29;20546;-77
2023/01/28 10:41:21;;;;;;;18.80;11.00;;;4.60;70.40;;;;;;4956396;29;20736;-78
2023/01/28 10:43:51;;;;;;;20.97;12.73;;;4.70;70.70;;;;;;4956640;29;20259;-78
2023/01/28 10:46:44;;;;;;;16.63;10.33;;;4.70;70.40;;;;;;4954369;29;20213;-77
2023/01/28 10:49:24;;;;;;;29.13;14.73;;;4.70;69.50;;;;;;4956204;29;20194;-77
2023/01/28 10:52:10;;;;;;;17.57;10.93;;;4.60;68.50;;;;;;4939085;29;20737;-78
2023/01/28 10:54:46;;;;;;;17.10;9.97;;;4.60;69.20;;;;;;4956338;29;20199;-80
2023/01/28 10:58:15;;;;;;;13.17;9.07;;;4.60;70.20;;;;;;4955484;29;20261;-76
2023/01/28 11:00:44;;;;;;;19.47;10.33;;;4.60;69.10;;;;;;4956020;29;20677;-79
2023/01/28 11:03:26;;;;;;;26.10;11.53;;;4.60;69.40;;;;;;4956306;29;20534;-79
2023/01/28 11:06:03;;;;;;;21.23;11.03;;;4.60;69.80;;;;;;4955893;29;20228;-78
2023/01/28 11:08:44;;;;;;;19.47;11.30;;;4.70;70.10;;;;;;4956059;29;20748;-79
2023/01/28 11:11:15;;;;;;;21.27;12.50;;;4.80;70.80;;;;;;4968261;23;20345;-78
2023/01/28 11:14:03;;;;;;;14.70;8.80;;;4.90;69.80;;;;;;4957776;28;20547;-78
2023/01/28 11:16:40;;;;;;;14.83;9.27;;;4.90;69.40;;;;;;4975090;28;20576;-77
2023/01/28 11:19:12;;;;;;;13.57;8.50;;;5.00;69.60;;;;;;4975164;28;20204;-79
2023/01/28 11:21:58;;;;;;;16.43;9.70;;;5.00;69.00;;;;;;4981817;23;20234;-79
2023/01/28 11:24:30;;;;;;;14.10;7.80;;;5.10;69.40;;;;;;4974807;28;20201;-79
2023/01/28 11:27:18;;;;;;;17.47;9.13;;;5.00;68.10;;;;;;4975195;28;20200;-78
2023/01/28 11:32:33;;;;;;;13.93;9.17;;;5.10;68.90;;;;;;4972777;28;20209;-78
2023/01/28 11:35:02;;;;;;;12.40;7.77;;;5.10;69.10;;;;;;4975063;28;20628;-78
2023/01/28 11:37:37;;;;;;;34.57;20.50;;;5.10;67.70;;;;;;4974723;28;20230;-78
2023/01/28 11:40:19;;;;;;;16.03;8.57;;;5.00;67.90;;;;;;4974849;28;20203;-77
2023/01/28 11:42:58;;;;;;;15.63;9.47;;;5.00;67.30;;;;;;4974384;28;20190;-77
2023/01/28 11:45:50;;;;;;;13.73;8.97;;;5.00;67.00;;;;;;4974553;28;20290;-78
2023/01/28 11:48:37;;;;;;;14.57;9.33;;;5.00;67.00;;;;;;4974432;28;20205;-79
2023/01/28 11:51:21;;;;;;;15.60;9.43;;;4.90;66.30;;;;;;4974381;28;20606;-79
2023/01/28 11:54:22;;;;;;;43.03;23.93;;;4.80;66.90;;;;;;4974556;28;20193;-78
2023/01/28 11:57:21;;;;;;;18.17;10.47;;;4.80;67.80;;;;;;4974300;28;20304;-78
2023/01/28 12:06:12;;;;;;;13.73;8.93;;;5.00;67.10;;;;;;4897769;29;20198;-77
2023/01/28 12:12:11;;;;;;;14.53;7.63;;;5.00;67.10;;;;;;4897812;29;20207;-77
2023/01/28 12:15:22;;;;;;;15.80;7.97;;;5.00;67.20;;;;;;4897798;29;20564;-79
2023/01/28 12:18:05;;;;;;;15.17;8.27;;;5.00;66.80;;;;;;4897739;29;20221;-78
2023/01/28 12:21:00;;;;;;;14.93;8.40;;;5.00;66.00;;;;;;4897490;29;20288;-78
2023/01/28 12:23:56;;;;;;;10.30;7.23;;;4.90;65.50;;;;;;4960847;23;20328;-78
2023/01/28 12:26:43;;;;;;;12.47;8.43;;;4.80;64.90;;;;;;4973706;28;20276;-78
2023/01/28 12:29:48;;;;;;;13.80;7.73;;;4.70;65.00;;;;;;4974093;28;20595;-79
2023/01/28 12:32:46;;;;;;;16.37;9.73;;;4.60;65.50;;;;;;4973810;28;20217;-77
2023/01/28 12:35:43;;;;;;;11.63;7.80;;;4.70;65.80;;;;;;4973533;28;20201;-77
2023/01/28 12:39:00;;;;;;;11.83;6.70;;;4.70;65.60;;;;;;4932241;29;20261;-76
2023/01/28 12:41:38;;;;;;;10.67;7.03;;;4.60;65.50;;;;;;4933029;29;20298;-76
2023/01/28 12:44:20;;;;;;;11.50;6.80;;;4.60;66.10;;;;;;4933119;29;20219;-77
2023/01/28 12:46:54;;;;;;;12.57;6.97;;;4.70;66.50;;;;;;4933130;29;20249;-77
2023/01/28 12:49:29;;;;;;;13.40;7.90;;;4.80;66.10;;;;;;4933054;29;20579;-78
2023/01/28 12:52:05;;;;;;;9.00;7.13;;;4.90;66.50;;;;;;4932804;29;20198;-77
2023/01/28 12:54:42;;;;;;;12.80;7.33;;;4.80;65.40;;;;;;4932988;29;20230;-77
2023/01/28 12:57:22;;;;;;;11.63;7.27;;;4.80;65.90;;;;;;4932919;29;20262;-75
2023/01/28 12:59:54;;;;;;;9.97;6.97;;;4.80;65.90;;;;;;4932232;29;20611;-75
2023/01/28 13:02:27;;;;;;;10.87;6.70;;;4.80;65.50;;;;;;4932848;29;20708;-76
2023/01/28 13:05:07;;;;;;;10.77;7.03;;;4.80;65.30;;;;;;4876122;29;20727;-76
2023/01/28 13:07:52;;;;;;;11.67;6.80;;;4.80;65.50;;;;;;4876217;29;20653;-78
2023/01/28 13:10:35;;;;;;;12.30;6.50;;;4.70;65.10;;;;;;4876331;29;20214;-78
2023/01/28 13:13:14;;;;;;;14.80;7.03;;;4.70;65.50;;;;;;4876268;29;20240;-78
2023/01/28 13:15:50;;;;;;;10.80;6.33;;;4.70;66.30;;;;;;4894884;29;20208;-76
2023/01/28 13:18:35;;;;;;;13.27;7.23;;;4.70;65.80;;;;;;4894899;29;20230;-78
2023/01/28 13:21:15;;;;;;;12.90;6.63;;;4.70;65.40;;;;;;4894801;29;20228;-77
2023/01/28 13:23:47;;;;;;;11.23;6.50;;;4.70;66.10;;;;;;4952619;28;20260;-78
2023/01/28 13:26:38;;;;;;;10.60;6.27;;;4.80;66.30;;;;;;4973117;28;20603;-77
2023/01/28 13:29:20;;;;;;;9.23;5.83;;;4.60;65.80;;;;;;4973149;28;20202;-78
2023/01/28 13:31:51;;;;;;;16.53;9.90;;;4.70;66.50;;;;;;4973199;28;20195;-78
2023/01/28 13:34:32;;;;;;;10.30;6.07;;;4.60;66.50;;;;;;4972987;28;20200;-77
2023/01/28 13:37:16;;;;;;;6.40;5.13;;;4.70;66.60;;;;;;4973212;28;20202;-77
2023/01/28 13:39:52;;;;;;;9.07;5.83;;;4.60;66.60;;;;;;4973299;28;20208;-76
2023/01/28 13:42:27;;;;;;;8.60;5.87;;;4.60;67.00;;;;;;4973010;28;20225;-77
2023/01/28 13:44:56;;;;;;;9.20;5.73;;;4.60;67.30;;;;;;4973054;28;20661;-77
2023/01/28 13:47:34;;;;;;;6.50;4.87;;;4.70;67.40;;;;;;4973053;28;20229;-77
2023/01/28 13:50:05;;;;;;;10.03;5.00;;;4.70;67.20;;;;;;4973011;28;20675;-77
2023/01/28 13:52:43;;;;;;;6.20;5.10;;;4.70;67.30;;;;;;4973021;28;20212;-76
2023/01/28 13:55:23;;;;;;;10.87;5.67;;;4.70;67.50;;;;;;4973045;28;20198;-77
2023/01/28 13:58:53;;;;;;;6.10;4.37;;;4.70;68.00;;;;;;4972856;28;20552;-77
2023/01/28 14:05:16;;;;;;;6.30;4.23;;;4.80;67.60;;;;;;4971553;28;20243;-77
2023/01/28 14:08:09;;;;;;;9.03;5.63;;;4.80;68.10;;;;;;4972816;28;20225;-77
2023/01/28 14:10:55;;;;;;;8.73;5.53;;;4.80;68.20;;;;;;4973436;28;20201;-76
2023/01/28 14:13:49;;;;;;;10.53;5.43;;;4.80;68.00;;;;;;4976056;28;20208;-78
2023/01/28 14:16:33;;;;;;;5.83;4.47;;;4.80;67.70;;;;;;4976583;28;20627;-78
2023/01/28 14:19:03;;;;;;;5.60;3.80;;;4.80;67.80;;;;;;4976347;28;20291;-76
2023/01/28 14:21:35;;;;;;;6.17;4.17;;;4.70;67.30;;;;;;4976226;28;20206;-77
2023/01/28 14:24:05;;;;;;;5.63;4.37;;;4.70;67.50;;;;;;4976215;28;20233;-77
2023/01/28 14:26:47;;;;;;;5.70;4.20;;;4.70;67.60;;;;;;4976219;28;20545;-77
2023/01/28 14:29:29;;;;;;;7.07;4.80;;;4.60;67.80;;;;;;4976108;28;20200;-77
2023/01/28 14:31:59;;;;;;;5.13;3.90;;;4.70;68.70;;;;;;4954872;29;20217;-78
2023/01/28 14:34:37;;;;;;;5.60;4.17;;;4.70;68.10;;;;;;4956742;29;20289;-77
2023/01/28 14:37:09;;;;;;;6.50;4.43;;;4.70;68.10;;;;;;4939364;29;20212;-77
2023/01/28 14:39:46;;;;;;;5.93;4.40;;;4.60;67.90;;;;;;4972247;23;20258;-76
2023/01/28 14:42:25;;;;;;;6.77;4.63;;;4.60;68.20;;;;;;4976021;28;20198;-77